Walnut Grove, MO (65770)

1:26 PM CST on February 21, 2017 (GMT -0600)
West of Ash Grove | | Change Station

Elev 1027 ft 37.34 °N, 93.60 °W | Updated 1 minute ago

Overcast
Overcast
59.7 °F
Feels Like 59.7 °F
N
0.0
Wind Variable Wind from NE
Gusts 2.0 mph

Today
High -- | Low -- °F
--% Chance of Precip.
Yesterday
High -- | Low -- °F
Precip. -- in
Pressure 29.91 in
Visibility 4.0 miles
Clouds Overcast 1600 ft
Dew Point 57 °F
Humidity 90%
Rainfall 0.00 in
Snow Depth Not available.
6:55 AM 6:00 PM
Waning Crescent, 23% visible
METAR KSGF 211852Z 01005KT 4SM -RA BR OVC016 15/14 A2991 RMK AO2 RAE1753B30 SLP126 P0001 T01500139
Pressure 29.91 in
Visibility 4.0 miles
Clouds Overcast 1600 ft
Dew Point 57 °F
Humidity 90%
Rainfall 0.00 in
Snow Depth Not available.
6:55 AM 6:00 PM
Waning Crescent, 23% visible
METAR KSGF 211852Z 01005KT 4SM -RA BR OVC016 15/14 A2991 RMK AO2 RAE1753B30 SLP126 P0001 T01500139

Get Your Daily Forecast Email!

Thanks for signing up!

Be on the lookout for a verification email in your inbox.

You'll start receiving the daily forecast at 8 AM.

×

10-Day Weather Forecast

Almanac

Astronomy

Feb. 21, 2017 Rise Set
Actual Time
Civil Twilight
Nautical Twilight
Astronomical Twilight
Moon
Length of Visible Light
Length of Day
Tomorrow will be .
, % of the Moon is Illuminated

Today's Extremes

State Highs State Lows

Community

WunderPhotos

Upload Photos

1,962,540 photos uploaded!

WunderBlog® & News

Nearby

Air Quality

  Air Quality AQ Index Pollutant
Not available.

Snow Depth

Station Depth Elevation

Earthquake Activity

City Distance Mag. Time & Date
Minimum magnitude displayed is 2.5.

Coastal Water Temperatures

Place Temperature

Stations

Nearby Weather Stations

Station Location Temp. Windchill Dew Point Humidity Wind Precip. Elev Updated Type
                   

Watches & Warnings

There are currently no watches in effect.